Portada
METAR-TAF:

METAR-TAF

Aeropuertos :

Millington-Memphis Airport

Millington, Tennessee, Estados Unidos

latitud: 35-21-24N, longitud: 089-52-13W, altitud: 98 m

Observación

El informe se hizo hace 51 minutos, a las 23:50 UTC
Viento 6 kt del noreste
Temperatura 25°C
Humedad 83%
Presión 1017 hPa
Visibilidad: 16.1 km
Cielo despejado

METAR: KNQA 012350Z 04006KT 10SM CLR 25/22 A3002

Hora: 19:41 (00:41 UTC)


TAF: falta

Observaciones y pronósticos meteorológicos de más de 4000 aeropuertos (mensajes METAR y TAF).

Los puntos amarillos y rojos representan las estaciones disponibles.

Ponga el ratón en el punto deseado para ver el nombre de la estación.

Haga clic para ver las observaciones y los pronósticos meteorológicos.

Para cambiar el mapa : haga clic en los botones verdes con una cruz de color negro para hacer un zoom, en el botón verde con un guión para alejar o en las flechas verdes para mapas adyacentes.


METAR-TAF: